sensor_id;sensor_type;location;lat;lon;timestamp;pressure;altitude;pressure_sealevel;temperature;humidity
32761;BME280;19126;47.472;7.850;2023-10-31T00:02:21;95324.88;;;9.15;100.00
32761;BME280;19126;47.472;7.850;2023-10-31T00:04:48;95325.28;;;9.12;100.00
32761;BME280;19126;47.472;7.850;2023-10-31T00:07:18;95326.69;;;9.08;100.00
32761;BME280;19126;47.472;7.850;2023-10-31T00:09:45;95318.16;;;8.99;100.00
32761;BME280;19126;47.472;7.850;2023-10-31T00:12:12;95324.03;;;9.01;100.00
32761;BME280;19126;47.472;7.850;2023-10-31T00:14:40;95324.63;;;8.97;100.00
32761;BME280;19126;47.472;7.850;2023-10-31T00:17:08;95322.78;;;8.90;100.00
32761;BME280;19126;47.472;7.850;2023-10-31T00:19:36;95319.34;;;8.90;100.00
32761;BME280;19126;47.472;7.850;2023-10-31T00:22:04;95321.16;;;8.89;100.00
32761;BME280;19126;47.472;7.850;2023-10-31T00:24:31;95323.19;;;8.87;100.00
32761;BME280;19126;47.472;7.850;2023-10-31T00:26:59;95322.41;;;8.93;100.00
32761;BME280;19126;47.472;7.850;2023-10-31T00:29:26;95326.47;;;9.03;100.00
32761;BME280;19126;47.472;7.850;2023-10-31T00:31:53;95329.03;;;8.96;100.00
32761;BME280;19126;47.472;7.850;2023-10-31T00:34:22;95328.41;;;8.87;100.00
32761;BME280;19126;47.472;7.850;2023-10-31T00:36:50;95338.44;;;8.77;100.00
32761;BME280;19126;47.472;7.850;2023-10-31T00:39:17;95339.00;;;8.65;100.00
32761;BME280;19126;47.472;7.850;2023-10-31T00:41:45;95338.31;;;8.57;100.00
32761;BME280;19126;47.472;7.850;2023-10-31T00:44:12;95329.81;;;8.48;100.00
32761;BME280;19126;47.472;7.850;2023-10-31T00:46:40;95336.22;;;8.45;100.00
32761;BME280;19126;47.472;7.850;2023-10-31T00:49:07;95343.16;;;8.53;99.21
32761;BME280;19126;47.472;7.850;2023-10-31T00:51:36;95340.78;;;8.58;100.00
32761;BME280;19126;47.472;7.850;2023-10-31T00:54:03;95338.31;;;8.50;100.00
32761;BME280;19126;47.472;7.850;2023-10-31T00:56:31;95344.34;;;8.50;100.00
32761;BME280;19126;47.472;7.850;2023-10-31T00:58:58;95346.31;;;8.48;100.00
32761;BME280;19126;47.472;7.850;2023-10-31T01:12:29;95360.97;;;8.43;100.00
32761;BME280;19126;47.472;7.850;2023-10-31T01:14:59;95366.56;;;8.68;100.00
32761;BME280;19126;47.472;7.850;2023-10-31T01:17:26;95369.03;;;8.70;100.00
32761;BME280;19126;47.472;7.850;2023-10-31T01:19:53;95377.22;;;8.60;100.00
32761;BME280;19126;47.472;7.850;2023-10-31T01:22:20;95384.81;;;8.55;100.00
32761;BME280;19126;47.472;7.850;2023-10-31T01:24:48;95373.34;;;8.49;100.00
32761;BME280;19126;47.472;7.850;2023-10-31T01:27:15;95373.69;;;8.46;100.00
32761;BME280;19126;47.472;7.850;2023-10-31T01:29:44;95385.94;;;8.45;100.00
32761;BME280;19126;47.472;7.850;2023-10-31T01:32:11;95376.25;;;8.39;97.18
32761;BME280;19126;47.472;7.850;2023-10-31T01:34:39;95378.44;;;8.35;95.35
32761;BME280;19126;47.472;7.850;2023-10-31T01:37:06;95381.06;;;8.35;91.17
32761;BME280;19126;47.472;7.850;2023-10-31T01:39:35;95380.84;;;8.37;89.49
32761;BME280;19126;47.472;7.850;2023-10-31T01:42:03;95374.06;;;8.43;87.92
32761;BME280;19126;47.472;7.850;2023-10-31T01:44:30;95367.56;;;8.60;95.39
32761;BME280;19126;47.472;7.850;2023-10-31T01:46:59;95382.25;;;8.61;100.00
32761;BME280;19126;47.472;7.850;2023-10-31T01:49:26;95388.50;;;8.60;100.00
32761;BME280;19126;47.472;7.850;2023-10-31T01:51:53;95397.97;;;8.61;100.00
32761;BME280;19126;47.472;7.850;2023-10-31T01:54:21;95393.28;;;8.57;100.00
32761;BME280;19126;47.472;7.850;2023-10-31T01:56:48;95405.69;;;8.76;100.00
32761;BME280;19126;47.472;7.850;2023-10-31T01:59:19;95407.78;;;8.88;100.00
32761;BME280;19126;47.472;7.850;2023-10-31T02:01:47;95409.78;;;8.86;100.00
32761;BME280;19126;47.472;7.850;2023-10-31T02:04:16;95413.63;;;8.90;100.00
32761;BME280;19126;47.472;7.850;2023-10-31T02:06:44;95419.69;;;8.90;100.00
32761;BME280;19126;47.472;7.850;2023-10-31T02:09:11;95434.56;;;8.83;100.00
32761;BME280;19126;47.472;7.850;2023-10-31T02:11:39;95437.41;;;8.88;100.00
32761;BME280;19126;47.472;7.850;2023-10-31T02:14:06;95443.09;;;8.99;100.00
32761;BME280;19126;47.472;7.850;2023-10-31T02:16:33;95449.97;;;9.06;100.00
32761;BME280;19126;47.472;7.850;2023-10-31T02:19:01;95452.97;;;8.97;100.00
32761;BME280;19126;47.472;7.850;2023-10-31T02:21:30;95465.22;;;8.89;100.00
32761;BME280;19126;47.472;7.850;2023-10-31T02:24:01;95463.34;;;8.83;100.00
32761;BME280;19126;47.472;7.850;2023-10-31T02:26:30;95475.84;;;8.81;100.00
32761;BME280;19126;47.472;7.850;2023-10-31T02:28:58;95484.94;;;8.92;100.00
32761;BME280;19126;47.472;7.850;2023-10-31T02:31:26;95486.94;;;8.83;100.00
32761;BME280;19126;47.472;7.850;2023-10-31T02:33:53;95478.00;;;8.77;100.00
32761;BME280;19126;47.472;7.850;2023-10-31T02:36:21;95481.84;;;8.75;99.86
32761;BME280;19126;47.472;7.850;2023-10-31T02:38:49;95480.16;;;8.67;99.05
32761;BME280;19126;47.472;7.850;2023-10-31T02:41:17;95482.78;;;8.67;97.03
32761;BME280;19126;47.472;7.850;2023-10-31T02:43:45;95495.44;;;8.63;95.80
32761;BME280;19126;47.472;7.850;2023-10-31T02:46:12;95492.88;;;8.70;92.13
32761;BME280;19126;47.472;7.850;2023-10-31T02:48:41;95503.47;;;8.62;89.51
32761;BME280;19126;47.472;7.850;2023-10-31T02:51:08;95505.47;;;8.60;87.27
32761;BME280;19126;47.472;7.850;2023-10-31T02:53:36;95509.09;;;8.59;87.61
32761;BME280;19126;47.472;7.850;2023-10-31T02:56:04;95514.00;;;8.69;90.01
32761;BME280;19126;47.472;7.850;2023-10-31T02:58:33;95521.19;;;8.60;91.02
32761;BME280;19126;47.472;7.850;2023-10-31T03:01:00;95521.94;;;8.54;92.44
32761;BME280;19126;47.472;7.850;2023-10-31T03:03:27;95527.53;;;8.50;90.86
32761;BME280;19126;47.472;7.850;2023-10-31T03:05:56;95530.72;;;8.46;89.65
32761;BME280;19126;47.472;7.850;2023-10-31T03:08:24;95526.03;;;8.41;86.85
32761;BME280;19126;47.472;7.850;2023-10-31T03:10:51;95524.78;;;8.37;84.18
32761;BME280;19126;47.472;7.850;2023-10-31T03:13:19;95524.16;;;8.35;82.66
32761;BME280;19126;47.472;7.850;2023-10-31T03:15:47;95518.50;;;8.31;80.49
32761;BME280;19126;47.472;7.850;2023-10-31T03:18:15;95510.19;;;8.28;77.41
32761;BME280;19126;47.472;7.850;2023-10-31T03:20:44;95508.78;;;8.25;75.81
32761;BME280;19126;47.472;7.850;2023-10-31T03:23:12;95507.16;;;8.24;73.44
32761;BME280;19126;47.472;7.850;2023-10-31T03:25:39;95506.53;;;8.22;70.86
32761;BME280;19126;47.472;7.850;2023-10-31T03:28:18;95505.91;;;8.20;70.12
32761;BME280;19126;47.472;7.850;2023-10-31T03:30:48;95502.84;;;8.16;67.57
32761;BME280;19126;47.472;7.850;2023-10-31T03:33:16;95513.53;;;8.15;67.02
32761;BME280;19126;47.472;7.850;2023-10-31T03:35:44;95506.84;;;8.12;66.04
32761;BME280;19126;47.472;7.850;2023-10-31T03:38:12;95517.50;;;8.11;65.18
32761;BME280;19126;47.472;7.850;2023-10-31T03:40:40;95519.28;;;8.10;62.50
32761;BME280;19126;47.472;7.850;2023-10-31T03:43:07;95519.66;;;8.07;62.61
32761;BME280;19126;47.472;7.850;2023-10-31T03:45:34;95520.66;;;8.06;61.03
32761;BME280;19126;47.472;7.850;2023-10-31T03:48:04;95528.72;;;8.04;59.50
32761;BME280;19126;47.472;7.850;2023-10-31T03:50:31;95528.09;;;8.02;59.85
32761;BME280;19126;47.472;7.850;2023-10-31T03:52:58;95533.47;;;8.01;57.96
32761;BME280;19126;47.472;7.850;2023-10-31T03:55:26;95530.44;;;7.97;57.05
32761;BME280;19126;47.472;7.850;2023-10-31T03:57:53;95539.28;;;7.96;56.77
32761;BME280;19126;47.472;7.850;2023-10-31T04:00:20;95533.59;;;7.92;56.70
32761;BME280;19126;47.472;7.850;2023-10-31T04:02:48;95532.97;;;7.90;56.76
32761;BME280;19126;47.472;7.850;2023-10-31T04:05:17;95539.38;;;7.88;55.57
32761;BME280;19126;47.472;7.850;2023-10-31T04:07:46;95539.72;;;7.85;55.54
32761;BME280;19126;47.472;7.850;2023-10-31T04:10:13;95536.50;;;7.83;54.77
32761;BME280;19126;47.472;7.850;2023-10-31T04:12:41;95534.88;;;7.82;54.30
32761;BME280;19126;47.472;7.850;2023-10-31T04:15:09;95532.25;;;7.82;53.48
32761;BME280;19126;47.472;7.850;2023-10-31T04:17:37;95530.63;;;7.81;52.18
32761;BME280;19126;47.472;7.850;2023-10-31T04:20:06;95523.00;;;7.79;51.19
32761;BME280;19126;47.472;7.850;2023-10-31T04:22:35;95529.84;;;7.80;51.74
32761;BME280;19126;47.472;7.850;2023-10-31T04:25:03;95536.22;;;7.77;51.62
32761;BME280;19126;47.472;7.850;2023-10-31T04:27:30;95543.06;;;7.78;50.76
32761;BME280;19126;47.472;7.850;2023-10-31T04:29:57;95539.66;;;7.78;49.72
32761;BME280;19126;47.472;7.850;2023-10-31T04:32:25;95544.69;;;7.80;48.23
32761;BME280;19126;47.472;7.850;2023-10-31T04:34:52;95542.09;;;7.80;47.70
32761;BME280;19126;47.472;7.850;2023-10-31T04:37:19;95539.31;;;7.81;46.54
32761;BME280;19126;47.472;7.850;2023-10-31T04:39:48;95542.09;;;7.80;44.70
32761;BME280;19126;47.472;7.850;2023-10-31T04:42:15;95541.28;;;7.79;44.05
32761;BME280;19126;47.472;7.850;2023-10-31T04:44:43;95539.47;;;7.80;43.40
32761;BME280;19126;47.472;7.850;2023-10-31T04:47:10;95544.69;;;7.80;42.41
32761;BME280;19126;47.472;7.850;2023-10-31T04:49:38;95548.56;;;7.84;41.68
32761;BME280;19126;47.472;7.850;2023-10-31T04:52:05;95547.16;;;7.81;41.54
32761;BME280;19126;47.472;7.850;2023-10-31T04:54:32;95545.16;;;7.83;40.35
32761;BME280;19126;47.472;7.850;2023-10-31T04:57:01;95553.00;;;7.83;39.09
32761;BME280;19126;47.472;7.850;2023-10-31T04:59:29;95553.63;;;7.85;39.60
32761;BME280;19126;47.472;7.850;2023-10-31T05:01:57;95556.41;;;7.84;39.38
32761;BME280;19126;47.472;7.850;2023-10-31T05:04:24;95560.84;;;7.83;37.83
32761;BME280;19126;47.472;7.850;2023-10-31T05:06:52;95557.22;;;7.84;38.19
32761;BME280;19126;47.472;7.850;2023-10-31T05:09:19;95555.41;;;7.85;36.91
32761;BME280;19126;47.472;7.850;2023-10-31T05:11:47;95557.22;;;7.84;37.00
32761;BME280;19126;47.472;7.850;2023-10-31T05:14:15;95552.38;;;7.81;37.68
32761;BME280;19126;47.472;7.850;2023-10-31T05:16:43;95552.81;;;7.85;36.52
32761;BME280;19126;47.472;7.850;2023-10-31T05:19:11;95555.25;;;7.86;35.63
32761;BME280;19126;47.472;7.850;2023-10-31T05:21:38;95561.09;;;7.88;35.34
32761;BME280;19126;47.472;7.850;2023-10-31T05:24:07;95565.50;;;7.88;35.55
32761;BME280;19126;47.472;7.850;2023-10-31T05:26:34;95553.25;;;7.88;35.50
32761;BME280;19126;47.472;7.850;2023-10-31T05:29:01;95561.28;;;7.87;34.55
32761;BME280;19126;47.472;7.850;2023-10-31T05:31:30;95560.28;;;7.88;33.98
32761;BME280;19126;47.472;7.850;2023-10-31T05:33:57;95554.63;;;7.84;33.63
32761;BME280;19126;47.472;7.850;2023-10-31T05:36:25;95555.06;;;7.88;33.96
32761;BME280;19126;47.472;7.850;2023-10-31T05:38:53;95555.88;;;7.88;32.92
32761;BME280;19126;47.472;7.850;2023-10-31T05:41:21;95550.81;;;7.87;32.94
32761;BME280;19126;47.472;7.850;2023-10-31T05:43:48;95555.69;;;7.90;31.76
32761;BME280;19126;47.472;7.850;2023-10-31T05:46:15;95552.25;;;7.89;32.46
32761;BME280;19126;47.472;7.850;2023-10-31T05:48:46;95557.50;;;7.89;31.62
32761;BME280;19126;47.472;7.850;2023-10-31T05:51:14;95550.38;;;7.83;31.86
32761;BME280;19126;47.472;7.850;2023-10-31T05:53:45;95554.25;;;7.87;31.61
32761;BME280;19126;47.472;7.850;2023-10-31T05:56:13;95564.50;;;7.89;30.75
32761;BME280;19126;47.472;7.850;2023-10-31T05:58:41;95574.97;;;7.89;31.09
32761;BME280;19126;47.472;7.850;2023-10-31T06:01:09;95574.81;;;7.90;31.93
32761;BME280;19126;47.472;7.850;2023-10-31T06:03:37;95584.28;;;7.91;31.99
32761;BME280;19126;47.472;7.850;2023-10-31T06:06:07;95582.28;;;7.94;31.78
32761;BME280;19126;47.472;7.850;2023-10-31T06:08:35;95585.69;;;7.94;30.87
32761;BME280;19126;47.472;7.850;2023-10-31T06:11:04;95585.69;;;7.94;31.03
32761;BME280;19126;47.472;7.850;2023-10-31T06:13:31;95577.84;;;7.94;31.62
32761;BME280;19126;47.472;7.850;2023-10-31T06:16:00;95578.69;;;7.95;30.62
32761;BME280;19126;47.472;7.850;2023-10-31T06:18:28;95581.47;;;7.93;31.17
32761;BME280;19126;47.472;7.850;2023-10-31T06:20:56;95594.19;;;7.96;30.67
32761;BME280;19126;47.472;7.850;2023-10-31T06:23:25;95600.22;;;7.97;30.35
32761;BME280;19126;47.472;7.850;2023-10-31T06:25:52;95604.47;;;7.98;29.59
32761;BME280;19126;47.472;7.850;2023-10-31T06:28:19;95598.25;;;7.99;29.28
32761;BME280;19126;47.472;7.850;2023-10-31T06:30:47;95610.31;;;8.00;28.94
32761;BME280;19126;47.472;7.850;2023-10-31T06:33:14;95605.91;;;8.00;30.16
32761;BME280;19126;47.472;7.850;2023-10-31T06:35:40;95613.38;;;8.03;29.85
32761;BME280;19126;47.472;7.850;2023-10-31T06:38:07;95615.00;;;8.04;28.38
32761;BME280;19126;47.472;7.850;2023-10-31T06:40:36;95626.63;;;8.02;28.14
32761;BME280;19126;47.472;7.850;2023-10-31T06:43:03;95621.41;;;8.02;27.73
32761;BME280;19126;47.472;7.850;2023-10-31T06:45:31;95614.38;;;8.02;27.87
32761;BME280;19126;47.472;7.850;2023-10-31T06:47:58;95630.06;;;8.02;28.57
32761;BME280;19126;47.472;7.850;2023-10-31T06:50:25;95626.28;;;8.05;27.73
32761;BME280;19126;47.472;7.850;2023-10-31T06:52:53;95638.63;;;8.11;26.95
32761;BME280;19126;47.472;7.850;2023-10-31T06:55:20;95629.78;;;8.12;28.06
32761;BME280;19126;47.472;7.850;2023-10-31T06:57:49;95633.22;;;8.13;27.81
32761;BME280;19126;47.472;7.850;2023-10-31T07:00:17;95630.78;;;8.11;28.63
32761;BME280;19126;47.472;7.850;2023-10-31T07:02:47;95643.69;;;8.13;28.42
32761;BME280;19126;47.472;7.850;2023-10-31T07:05:15;95643.41;;;8.07;28.93
32761;BME280;19126;47.472;7.850;2023-10-31T07:07:43;95642.44;;;8.09;28.63
32761;BME280;19126;47.472;7.850;2023-10-31T07:10:10;95653.06;;;8.07;29.11
32761;BME280;19126;47.472;7.850;2023-10-31T07:12:38;95651.06;;;8.09;29.98
32761;BME280;19126;47.472;7.850;2023-10-31T07:15:08;95653.53;;;8.11;28.90
32761;BME280;19126;47.472;7.850;2023-10-31T07:17:36;95654.16;;;8.13;30.57
32761;BME280;19126;47.472;7.850;2023-10-31T07:20:05;95651.53;;;8.13;29.82
32761;BME280;19126;47.472;7.850;2023-10-31T07:22:33;95654.41;;;8.18;30.62
32761;BME280;19126;47.472;7.850;2023-10-31T07:25:00;95659.44;;;8.19;31.06
32761;BME280;19126;47.472;7.850;2023-10-31T07:27:29;95657.28;;;8.23;30.89
32761;BME280;19126;47.472;7.850;2023-10-31T07:29:56;95655.47;;;8.24;30.26
32761;BME280;19126;47.472;7.850;2023-10-31T07:32:25;95660.53;;;8.25;31.78
32761;BME280;19126;47.472;7.850;2023-10-31T07:34:52;95654.56;;;8.31;30.84
32761;BME280;19126;47.472;7.850;2023-10-31T07:37:20;95659.97;;;8.30;31.08
32761;BME280;19126;47.472;7.850;2023-10-31T07:39:47;95665.66;;;8.33;29.97
32761;BME280;19126;47.472;7.850;2023-10-31T07:42:16;95662.03;;;8.34;31.53
32761;BME280;19126;47.472;7.850;2023-10-31T07:44:44;95671.94;;;8.39;31.39
32761;BME280;19126;47.472;7.850;2023-10-31T07:47:11;95674.03;;;8.44;30.45
32761;BME280;19126;47.472;7.850;2023-10-31T07:49:39;95675.03;;;8.43;30.62
32761;BME280;19126;47.472;7.850;2023-10-31T07:52:07;95671.78;;;8.41;31.10
32761;BME280;19126;47.472;7.850;2023-10-31T07:54:34;95670.84;;;8.48;31.04
32761;BME280;19126;47.472;7.850;2023-10-31T07:57:01;95673.59;;;8.55;30.58
32761;BME280;19126;47.472;7.850;2023-10-31T07:59:29;95668.34;;;8.55;29.86
32761;BME280;19126;47.472;7.850;2023-10-31T08:01:56;95676.19;;;8.55;31.30
32761;BME280;19126;47.472;7.850;2023-10-31T08:04:24;95679.44;;;8.57;30.27
32761;BME280;19126;47.472;7.850;2023-10-31T08:06:52;95677.72;;;8.64;31.29
32761;BME280;19126;47.472;7.850;2023-10-31T08:09:19;95683.38;;;8.68;30.99
32761;BME280;19126;47.472;7.850;2023-10-31T08:11:47;95686.44;;;8.72;30.87
32761;BME280;19126;47.472;7.850;2023-10-31T08:14:14;95690.56;;;8.81;29.59
32761;BME280;19126;47.472;7.850;2023-10-31T08:16:45;95692.59;;;8.86;31.17
32761;BME280;19126;47.472;7.850;2023-10-31T08:19:12;95693.69;;;8.91;30.09
32761;BME280;19126;47.472;7.850;2023-10-31T08:21:40;95685.25;;;8.96;30.76
32761;BME280;19126;47.472;7.850;2023-10-31T08:24:10;95693.97;;;9.03;32.68
32761;BME280;19126;47.472;7.850;2023-10-31T08:26:39;95691.00;;;9.06;31.74
32761;BME280;19126;47.472;7.850;2023-10-31T08:29:06;95696.47;;;9.12;31.98
32761;BME280;19126;47.472;7.850;2023-10-31T08:31:34;95699.97;;;9.19;32.43
32761;BME280;19126;47.472;7.850;2023-10-31T08:34:01;95696.59;;;9.25;31.74
32761;BME280;19126;47.472;7.850;2023-10-31T08:36:29;95696.66;;;9.32;31.89
32761;BME280;19126;47.472;7.850;2023-10-31T08:39:03;95693.91;;;9.40;32.75
32761;BME280;19126;47.472;7.850;2023-10-31T08:41:31;95693.34;;;9.45;33.37
32761;BME280;19126;47.472;7.850;2023-10-31T08:43:59;95699.88;;;9.56;32.29
32761;BME280;19126;47.472;7.850;2023-10-31T08:46:27;95704.34;;;9.62;35.17
32761;BME280;19126;47.472;7.850;2023-10-31T08:48:54;95711.06;;;9.71;36.68
32761;BME280;19126;47.472;7.850;2023-10-31T08:51:22;95705.69;;;9.79;39.86
32761;BME280;19126;47.472;7.850;2023-10-31T08:53:55;95704.13;;;9.85;43.47
32761;BME280;19126;47.472;7.850;2023-10-31T08:56:22;95704.97;;;9.92;47.84
32761;BME280;19126;47.472;7.850;2023-10-31T08:58:51;95709.06;;;10.02;51.40
32761;BME280;19126;47.472;7.850;2023-10-31T09:01:19;95706.56;;;10.29;53.01
32761;BME280;19126;47.472;7.850;2023-10-31T09:03:46;95705.88;;;10.48;54.31
32761;BME280;19126;47.472;7.850;2023-10-31T09:06:14;95708.41;;;10.77;54.98
32761;BME280;19126;47.472;7.850;2023-10-31T09:08:46;95706.63;;;10.97;58.33
32761;BME280;19126;47.472;7.850;2023-10-31T09:11:13;95704.44;;;11.14;77.34
32761;BME280;19126;47.472;7.850;2023-10-31T09:13:41;95707.28;;;11.40;90.95
32761;BME280;19126;47.472;7.850;2023-10-31T09:16:09;95704.66;;;11.67;100.00
32761;BME280;19126;47.472;7.850;2023-10-31T09:18:37;95700.59;;;11.84;100.00
32761;BME280;19126;47.472;7.850;2023-10-31T09:21:05;95693.31;;;12.07;100.00
32761;BME280;19126;47.472;7.850;2023-10-31T09:23:33;95704.75;;;12.33;100.00
32761;BME280;19126;47.472;7.850;2023-10-31T09:26:01;95707.50;;;12.58;100.00
32761;BME280;19126;47.472;7.850;2023-10-31T09:28:30;95696.75;;;12.59;100.00
32761;BME280;19126;47.472;7.850;2023-10-31T09:30:58;95701.03;;;12.54;100.00
32761;BME280;19126;47.472;7.850;2023-10-31T09:33:28;95706.81;;;12.76;100.00
32761;BME280;19126;47.472;7.850;2023-10-31T09:35:56;95700.88;;;12.87;100.00
32761;BME280;19126;47.472;7.850;2023-10-31T09:38:23;95699.81;;;12.95;100.00
32761;BME280;19126;47.472;7.850;2023-10-31T09:40:51;95704.97;;;13.15;100.00
32761;BME280;19126;47.472;7.850;2023-10-31T09:43:18;95702.31;;;13.15;100.00
32761;BME280;19126;47.472;7.850;2023-10-31T09:45:46;95710.16;;;12.97;100.00
32761;BME280;19126;47.472;7.850;2023-10-31T09:48:14;95709.91;;;12.98;100.00
32761;BME280;19126;47.472;7.850;2023-10-31T09:50:43;95707.53;;;12.90;100.00
32761;BME280;19126;47.472;7.850;2023-10-31T09:53:10;95706.22;;;12.74;100.00
32761;BME280;19126;47.472;7.850;2023-10-31T09:55:39;95720.84;;;12.63;100.00
32761;BME280;19126;47.472;7.850;2023-10-31T09:58:06;95717.84;;;12.53;100.00
32761;BME280;19126;47.472;7.850;2023-10-31T10:00:33;95712.41;;;12.48;100.00
32761;BME280;19126;47.472;7.850;2023-10-31T10:03:03;95706.47;;;12.59;100.00
32761;BME280;19126;47.472;7.850;2023-10-31T10:05:31;95706.47;;;12.66;100.00
32761;BME280;19126;47.472;7.850;2023-10-31T10:08:00;95708.06;;;12.67;100.00
32761;BME280;19126;47.472;7.850;2023-10-31T10:10:27;95701.84;;;12.54;100.00
32761;BME280;19126;47.472;7.850;2023-10-31T10:12:56;95709.75;;;12.48;100.00
32761;BME280;19126;47.472;7.850;2023-10-31T10:15:24;95706.13;;;12.49;100.00
32761;BME280;19126;47.472;7.850;2023-10-31T10:17:52;95696.19;;;12.51;100.00
32761;BME280;19126;47.472;7.850;2023-10-31T10:20:19;95709.94;;;12.53;100.00
32761;BME280;19126;47.472;7.850;2023-10-31T10:22:47;95705.31;;;12.48;100.00
32761;BME280;19126;47.472;7.850;2023-10-31T10:25:19;95709.81;;;12.41;100.00
32761;BME280;19126;47.472;7.850;2023-10-31T10:27:46;95706.75;;;12.37;100.00
32761;BME280;19126;47.472;7.850;2023-10-31T10:30:15;95706.16;;;12.35;100.00
32761;BME280;19126;47.472;7.850;2023-10-31T10:32:42;95706.19;;;12.28;100.00
32761;BME280;19126;47.472;7.850;2023-10-31T10:35:10;95711.25;;;12.30;100.00
32761;BME280;19126;47.472;7.850;2023-10-31T10:37:38;95714.09;;;12.28;100.00
32761;BME280;19126;47.472;7.850;2023-10-31T10:40:08;95715.25;;;12.39;100.00
32761;BME280;19126;47.472;7.850;2023-10-31T10:42:45;95710.22;;;12.38;100.00
32761;BME280;19126;47.472;7.850;2023-10-31T10:45:14;95708.78;;;12.35;100.00
32761;BME280;19126;47.472;7.850;2023-10-31T10:47:47;95715.25;;;12.46;100.00
32761;BME280;19126;47.472;7.850;2023-10-31T10:50:14;95715.44;;;12.51;100.00
32761;BME280;19126;47.472;7.850;2023-10-31T10:52:47;95713.41;;;12.46;100.00
32761;BME280;19126;47.472;7.850;2023-10-31T10:55:21;95716.22;;;12.52;100.00
32761;BME280;19126;47.472;7.850;2023-10-31T10:58:00;95715.81;;;12.55;100.00
32761;BME280;19126;47.472;7.850;2023-10-31T11:00:28;95714.41;;;12.52;100.00
32761;BME280;19126;47.472;7.850;2023-10-31T11:02:57;95710.38;;;12.50;100.00
32761;BME280;19126;47.472;7.850;2023-10-31T11:05:25;95711.19;;;12.50;100.00
32761;BME280;19126;47.472;7.850;2023-10-31T11:07:53;95708.72;;;12.55;100.00
32761;BME280;19126;47.472;7.850;2023-10-31T11:10:22;95712.56;;;12.53;100.00
32761;BME280;19126;47.472;7.850;2023-10-31T11:12:49;95712.97;;;12.56;97.68
32761;BME280;19126;47.472;7.850;2023-10-31T11:15:18;95716.41;;;12.64;100.00
32761;BME280;19126;47.472;7.850;2023-10-31T11:17:47;95708.50;;;12.57;100.00
32761;BME280;19126;47.472;7.850;2023-10-31T11:20:16;95711.19;;;12.50;99.88
32761;BME280;19126;47.472;7.850;2023-10-31T11:22:45;95712.44;;;12.41;100.00
32761;BME280;19126;47.472;7.850;2023-10-31T11:25:17;95707.59;;;12.38;100.00
32761;BME280;19126;47.472;7.850;2023-10-31T11:27:46;95718.53;;;12.35;100.00
32761;BME280;19126;47.472;7.850;2023-10-31T11:30:27;95715.06;;;12.34;100.00
32761;BME280;19126;47.472;7.850;2023-10-31T11:32:55;95710.41;;;12.36;100.00
32761;BME280;19126;47.472;7.850;2023-10-31T11:35:23;95706.94;;;12.42;100.00
32761;BME280;19126;47.472;7.850;2023-10-31T11:38:01;95708.38;;;12.45;100.00
32761;BME280;19126;47.472;7.850;2023-10-31T11:40:30;95706.94;;;12.49;100.00
32761;BME280;19126;47.472;7.850;2023-10-31T11:42:58;95703.09;;;12.45;100.00
32761;BME280;19126;47.472;7.850;2023-10-31T11:45:30;95706.34;;;12.47;100.00
32761;BME280;19126;47.472;7.850;2023-10-31T11:47:57;95707.94;;;12.48;100.00
32761;BME280;19126;47.472;7.850;2023-10-31T11:50:25;95707.72;;;12.50;100.00
32761;BME280;19126;47.472;7.850;2023-10-31T11:53:04;95714.63;;;12.51;100.00
32761;BME280;19126;47.472;7.850;2023-10-31T11:55:34;95715.22;;;12.53;100.00
32761;BME280;19126;47.472;7.850;2023-10-31T11:58:18;95725.31;;;12.63;100.00
32761;BME280;19126;47.472;7.850;2023-10-31T12:00:49;95732.03;;;12.58;97.91
32761;BME280;19126;47.472;7.850;2023-10-31T12:03:19;95737.06;;;12.67;100.00
32761;BME280;19126;47.472;7.850;2023-10-31T12:05:54;95740.31;;;12.62;100.00
32761;BME280;19126;47.472;7.850;2023-10-31T12:08:27;95745.03;;;12.46;100.00
32761;BME280;19126;47.472;7.850;2023-10-31T12:11:07;95762.06;;;12.37;100.00
32761;BME280;19126;47.472;7.850;2023-10-31T12:13:37;95759.06;;;12.27;100.00
32761;BME280;19126;47.472;7.850;2023-10-31T12:16:09;95770.00;;;12.24;100.00
32761;BME280;19126;47.472;7.850;2023-10-31T12:18:37;95773.44;;;12.18;100.00
32761;BME280;19126;47.472;7.850;2023-10-31T12:21:06;95775.47;;;12.15;100.00
32761;BME280;19126;47.472;7.850;2023-10-31T12:23:34;95785.03;;;12.10;100.00
32761;BME280;19126;47.472;7.850;2023-10-31T12:26:02;95781.38;;;12.04;100.00
32761;BME280;19126;47.472;7.850;2023-10-31T12:28:29;95781.13;;;11.99;100.00
32761;BME280;19126;47.472;7.850;2023-10-31T12:30:57;95782.78;;;12.00;100.00
32761;BME280;19126;47.472;7.850;2023-10-31T12:33:27;95777.69;;;11.85;100.00
32761;BME280;19126;47.472;7.850;2023-10-31T12:35:58;95780.34;;;11.78;100.00
32761;BME280;19126;47.472;7.850;2023-10-31T12:38:27;95776.88;;;11.78;100.00
32761;BME280;19126;47.472;7.850;2023-10-31T12:40:56;95770.63;;;11.72;100.00
32761;BME280;19126;47.472;7.850;2023-10-31T12:43:24;95772.63;;;11.63;100.00
32761;BME280;19126;47.472;7.850;2023-10-31T12:45:53;95772.25;;;11.60;100.00
32761;BME280;19126;47.472;7.850;2023-10-31T12:48:24;95775.69;;;11.53;100.00
32761;BME280;19126;47.472;7.850;2023-10-31T12:51:06;95784.56;;;11.52;100.00
32761;BME280;19126;47.472;7.850;2023-10-31T12:53:38;95785.38;;;11.53;100.00
32761;BME280;19126;47.472;7.850;2023-10-31T12:56:06;95791.66;;;11.52;100.00
32761;BME280;19126;47.472;7.850;2023-10-31T12:58:33;95781.16;;;11.58;100.00
32761;BME280;19126;47.472;7.850;2023-10-31T13:01:06;95786.38;;;11.52;100.00
32761;BME280;19126;47.472;7.850;2023-10-31T13:03:52;95790.03;;;11.51;100.00
32761;BME280;19126;47.472;7.850;2023-10-31T13:06:21;95792.84;;;11.42;100.00
32761;BME280;19126;47.472;7.850;2023-10-31T13:08:49;95790.22;;;11.36;100.00
32761;BME280;19126;47.472;7.850;2023-10-31T13:11:16;95796.47;;;11.28;100.00
32761;BME280;19126;47.472;7.850;2023-10-31T13:13:48;95797.91;;;11.31;100.00
32761;BME280;19126;47.472;7.850;2023-10-31T13:16:16;95800.13;;;11.34;100.00
32761;BME280;19126;47.472;7.850;2023-10-31T13:18:43;95797.91;;;11.37;100.00
32761;BME280;19126;47.472;7.850;2023-10-31T13:21:11;95803.56;;;11.41;100.00